Time,TemperatureF,DewpointF,PressureIn,WindDirection,WindDirectionDegrees,WindSpeedMPH,WindSpeedGustMPH,Humidity,HourlyPrecipIn,Conditions,Clouds,dailyrainin,SoftwareType,DateUTC
2014-12-18 00:01:00,15.6,13.4,30.36,NE,38,0.0,0.0,91,0.00,,,0.00,Wunderground v.1.15,2014-12-18 06:01:00,
2014-12-18 00:11:00,15.4,13.2,30.37,NE,38,0.0,0.0,91,0.00,,,0.00,Wunderground v.1.15,2014-12-18 06:11:00,
2014-12-18 00:21:00,15.1,12.9,30.37,NE,38,0.0,0.0,91,0.00,,,0.00,Wunderground v.1.15,2014-12-18 06:21:00,
2014-12-18 00:31:00,14.9,12.7,30.37,NE,38,0.0,0.0,91,0.00,,,0.00,Wunderground v.1.15,2014-12-18 06:31:00,
2014-12-18 00:41:00,14.6,12.5,30.38,NE,38,0.0,0.0,91,0.00,,,0.00,Wunderground v.1.15,2014-12-18 06:41:00,
2014-12-18 00:51:00,14.6,12.7,30.39,NE,38,0.0,0.0,92,0.00,,,0.00,Wunderground v.1.15,2014-12-18 06:51:00,
2014-12-18 01:01:00,14.9,13.0,30.39,NE,38,0.0,0.0,92,0.00,,,0.00,Wunderground v.1.15,2014-12-18 07:01:00,
2014-12-18 01:11:00,15.2,13.3,30.38,NE,38,0.0,0.0,92,0.00,,,0.00,Wunderground v.1.15,2014-12-18 07:11:00,
2014-12-18 01:21:00,15.5,13.6,30.38,NE,38,0.0,0.0,92,0.00,,,0.00,Wunderground v.1.15,2014-12-18 07:21:00,
2014-12-18 01:31:00,15.8,13.9,30.38,North,5,0.0,0.0,92,0.00,,,0.00,Wunderground v.1.15,2014-12-18 07:31:00,
2014-12-18 01:41:00,15.9,14.0,30.37,NNW,346,1.0,1.0,92,0.00,,,0.00,Wunderground v.1.15,2014-12-18 07:41:00,
2014-12-18 01:51:00,16.2,14.3,30.37,NNW,346,1.0,1.0,92,0.00,,,0.00,Wunderground v.1.15,2014-12-18 07:51:00,
2014-12-18 02:01:00,16.4,14.5,30.36,North,11,1.0,2.0,92,0.00,,,0.00,Wunderground v.1.15,2014-12-18 08:01:00,
2014-12-18 02:11:00,16.5,14.6,30.37,NNE,12,1.0,1.0,92,0.00,,,0.00,Wunderground v.1.15,2014-12-18 08:11:00,
2014-12-18 02:21:00,16.7,14.8,30.37,NNE,12,1.0,2.0,92,0.00,,,0.00,Wunderground v.1.15,2014-12-18 08:21:00,
2014-12-18 02:31:00,16.8,14.6,30.37,NNE,12,0.0,0.0,91,0.00,,,0.00,Wunderground v.1.15,2014-12-18 08:31:00,
2014-12-18 02:41:00,16.9,14.7,30.38,NNE,12,0.0,0.0,91,0.00,,,0.00,Wunderground v.1.15,2014-12-18 08:41:00,
2014-12-18 02:51:00,16.9,14.7,30.37,NNE,12,0.0,0.0,91,0.00,,,0.00,Wunderground v.1.15,2014-12-18 08:51:00,
2014-12-18 03:01:00,17.0,14.8,30.37,NNE,12,0.0,1.0,91,0.00,,,0.00,Wunderground v.1.15,2014-12-18 09:01:00,
2014-12-18 03:11:00,17.0,14.8,30.36,NNE,12,1.0,2.0,91,0.00,,,0.00,Wunderground v.1.15,2014-12-18 09:11:00,
2014-12-18 03:21:00,16.8,14.4,30.36,NNE,26,2.0,2.0,90,0.00,,,0.00,Wunderground v.1.15,2014-12-18 09:21:00,
2014-12-18 03:31:00,16.8,14.6,30.35,NNE,26,2.0,2.0,91,0.00,,,0.00,Wunderground v.1.15,2014-12-18 09:31:00,
2014-12-18 03:41:00,16.9,14.7,30.35,ENE,57,2.0,2.0,91,0.00,,,0.00,Wunderground v.1.15,2014-12-18 09:41:00,
2014-12-18 03:51:00,17.1,14.9,30.35,NE,50,2.0,2.0,91,0.00,,,0.00,Wunderground v.1.15,2014-12-18 09:51:00,
2014-12-18 04:01:00,17.2,15.0,30.34,ENE,69,2.0,2.0,91,0.00,,,0.00,Wunderground v.1.15,2014-12-18 10:01:00,
2014-12-18 04:11:00,17.4,15.2,30.34,NE,49,1.0,2.0,91,0.00,,,0.00,Wunderground v.1.15,2014-12-18 10:11:00,
2014-12-18 04:21:00,17.6,15.4,30.33,NE,51,2.0,3.0,91,0.00,,,0.00,Wunderground v.1.15,2014-12-18 10:21:00,
2014-12-18 04:31:00,17.8,15.6,30.33,NE,46,2.0,2.0,91,0.00,,,0.00,Wunderground v.1.15,2014-12-18 10:31:00,
2014-12-18 04:41:00,17.9,15.7,30.33,East,98,2.0,2.0,91,0.00,,,0.00,Wunderground v.1.15,2014-12-18 10:41:00,
2014-12-18 04:51:00,18.0,15.8,30.33,ESE,107,2.0,2.0,91,0.00,,,0.00,Wunderground v.1.15,2014-12-18 10:51:00,
2014-12-18 05:01:00,18.1,15.9,30.34,East,86,1.0,1.0,91,0.00,,,0.00,Wunderground v.1.15,2014-12-18 11:01:00,
2014-12-18 05:11:00,18.1,15.9,30.34,ESE,102,2.0,2.0,91,0.00,,,0.00,Wunderground v.1.15,2014-12-18 11:11:00,
2014-12-18 05:21:00,18.2,16.0,30.34,ESE,120,1.0,1.0,91,0.00,,,0.00,Wunderground v.1.15,2014-12-18 11:21:00,
2014-12-18 05:31:00,18.2,16.0,30.35,ESE,114,1.0,3.0,91,0.00,,,0.00,Wunderground v.1.15,2014-12-18 11:31:00,
2014-12-18 05:41:00,18.4,16.2,30.35,East,97,1.0,1.0,91,0.00,,,0.00,Wunderground v.1.15,2014-12-18 11:41:00,
2014-12-18 05:51:00,18.5,16.3,30.35,East,101,2.0,2.0,91,0.00,,,0.00,Wunderground v.1.15,2014-12-18 11:51:00,